createdAt,value
2018-08-25T00:01:29.900Z,54.80
2018-08-25T00:03:59.206Z,54.70
2018-08-25T00:06:27.468Z,54.70
2018-08-25T00:08:56.488Z,57.00
2018-08-25T00:11:24.703Z,57.00
2018-08-25T00:13:52.952Z,55.20
2018-08-25T00:16:21.162Z,55.40
2018-08-25T00:18:49.373Z,55.30
2018-08-25T00:21:17.606Z,54.00
2018-08-25T00:23:45.873Z,53.90
2018-08-25T00:26:14.853Z,56.20
2018-08-25T00:28:43.079Z,55.80
2018-08-25T00:31:12.127Z,53.90
2018-08-25T00:33:40.361Z,53.80
2018-08-25T00:36:09.461Z,53.90
2018-08-25T00:38:37.721Z,53.70
2018-08-25T00:41:06.757Z,55.40
2018-08-25T00:43:34.965Z,55.40
2018-08-25T00:46:03.195Z,55.00
2018-08-25T00:48:31.430Z,56.30
2018-08-25T00:50:59.672Z,56.00
2018-08-25T00:53:27.885Z,54.00
2018-08-25T00:55:56.118Z,54.60
2018-08-25T00:58:24.394Z,54.70
2018-08-25T01:00:53.445Z,54.80
2018-08-25T01:03:22.457Z,55.60
2018-08-25T01:05:50.685Z,55.60
2018-08-25T01:08:18.944Z,54.20
2018-08-25T01:10:47.971Z,55.40
2018-08-25T01:13:16.193Z,54.70
2018-08-25T01:15:44.555Z,55.90
2018-08-25T01:18:12.756Z,56.70
2018-08-25T01:20:41.034Z,55.20
2018-08-25T01:23:09.277Z,55.90
2018-08-25T01:25:37.515Z,56.10
2018-08-25T01:28:05.783Z,56.80
2018-08-25T01:30:34.018Z,56.00
2018-08-25T01:33:03.025Z,54.40
2018-08-25T01:35:31.295Z,54.40
2018-08-25T01:37:59.532Z,54.60
2018-08-25T01:40:27.757Z,55.60
2018-08-25T01:42:56.011Z,56.70
2018-08-25T01:45:24.253Z,56.90
2018-08-25T01:47:52.496Z,57.60
2018-08-25T01:50:20.783Z,56.10
2018-08-25T01:52:48.974Z,54.50
2018-08-25T01:55:17.262Z,56.60
2018-08-25T01:57:45.470Z,56.70
2018-08-25T02:00:14.490Z,53.90
2018-08-25T02:02:42.761Z,53.80
2018-08-25T02:05:10.928Z,54.20
2018-08-25T02:07:39.145Z,57.10
2018-08-25T02:10:07.432Z,58.50
2018-08-25T02:12:35.656Z,56.50
2018-08-25T02:15:03.890Z,58.90
2018-08-25T02:17:32.104Z,61.30
2018-08-25T02:20:00.392Z,60.00
2018-08-25T02:22:28.600Z,57.70
2018-08-25T02:24:56.833Z,60.40
2018-08-25T02:27:25.092Z,59.60
2018-08-25T02:29:54.083Z,60.50
2018-08-25T02:32:23.809Z,59.10
2018-08-25T02:34:52.081Z,59.20
2018-08-25T02:37:20.330Z,59.60
2018-08-25T02:39:48.595Z,58.90
2018-08-25T02:42:16.886Z,59.20
2018-08-25T02:44:45.155Z,56.70
2018-08-25T02:47:13.410Z,57.20
2018-08-25T02:49:41.637Z,57.20
2018-08-25T02:52:10.620Z,59.10
2018-08-25T02:54:38.923Z,59.10
2018-08-25T02:57:08.757Z,58.90
2018-08-25T02:59:37.008Z,59.00
2018-08-25T03:02:05.262Z,59.60
2018-08-25T03:04:33.519Z,59.60
2018-08-25T03:07:01.781Z,56.50
2018-08-25T03:09:30.038Z,57.00
2018-08-25T03:11:58.321Z,58.60
2018-08-25T03:14:26.886Z,56.10
2018-08-25T03:16:55.856Z,55.90
2018-08-25T03:19:24.877Z,58.00
2018-08-25T03:21:53.748Z,57.90
2018-08-25T03:24:22.762Z,57.10
2018-08-25T03:26:50.981Z,57.20
2018-08-25T03:29:19.229Z,57.60
2018-08-25T03:31:47.495Z,59.30
2018-08-25T03:34:15.785Z,57.20
2018-08-25T03:36:44.769Z,58.60
2018-08-25T03:39:13.033Z,58.60
2018-08-25T03:41:41.291Z,57.00
2018-08-25T03:44:10.317Z,57.00
2018-08-25T03:46:40.965Z,58.20
2018-08-25T03:49:09.210Z,58.20
2018-08-25T03:51:37.427Z,58.50
2018-08-25T03:54:05.665Z,58.70
2018-08-25T03:56:33.931Z,59.40
2018-08-25T03:59:02.947Z,57.90
2018-08-25T04:01:31.257Z,57.90
2018-08-25T04:03:59.475Z,59.40
2018-08-25T04:06:28.621Z,56.70
2018-08-25T04:08:57.731Z,56.40
2018-08-25T04:11:26.141Z,58.00
2018-08-25T04:13:54.367Z,56.30
2018-08-25T04:16:22.587Z,58.50
2018-08-25T04:18:51.578Z,57.80
2018-08-25T04:21:19.844Z,57.80
2018-08-25T04:23:48.099Z,56.60
2018-08-25T04:26:16.314Z,57.00
2018-08-25T04:28:44.560Z,58.60
2018-08-25T04:31:12.886Z,59.00
2018-08-25T04:33:42.399Z,57.50
2018-08-25T04:36:10.657Z,57.50
2018-08-25T04:38:39.511Z,55.50
2018-08-25T04:41:08.547Z,56.50
2018-08-25T04:43:36.744Z,57.00
2018-08-25T04:46:04.964Z,55.70
2018-08-25T04:48:33.214Z,57.50
2018-08-25T04:51:01.428Z,58.10
2018-08-25T04:53:29.674Z,57.40
2018-08-25T04:55:58.840Z,57.60
2018-08-25T04:58:27.880Z,56.40
2018-08-25T05:00:56.145Z,56.70
2018-08-25T05:03:24.350Z,57.70
2018-08-25T05:05:52.619Z,57.40
2018-08-25T05:08:20.864Z,57.70
2018-08-25T05:10:49.138Z,57.20
2018-08-25T05:13:18.026Z,56.10
2018-08-25T05:15:46.292Z,56.80
2018-08-25T05:18:15.300Z,56.00
2018-08-25T05:20:43.564Z,56.00
2018-08-25T05:23:11.760Z,56.00
2018-08-25T05:25:41.086Z,56.10
2018-08-25T05:28:09.297Z,56.30
2018-08-25T05:30:38.323Z,56.40
2018-08-25T05:33:06.557Z,56.40
2018-08-25T05:35:35.586Z,56.40
2018-08-25T05:38:05.062Z,56.40
2018-08-25T05:40:33.286Z,56.90
2018-08-25T05:43:01.542Z,56.00
2018-08-25T05:45:30.470Z,56.50
2018-08-25T05:47:58.736Z,55.30
2018-08-25T05:50:26.958Z,56.20
2018-08-25T05:52:55.167Z,56.30
2018-08-25T05:55:24.285Z,56.70
2018-08-25T05:57:52.528Z,56.80
2018-08-25T06:00:21.515Z,56.60
2018-08-25T06:02:50.524Z,56.70
2018-08-25T06:05:18.816Z,56.70
2018-08-25T06:07:47.059Z,56.80
2018-08-25T06:10:16.128Z,56.20
2018-08-25T06:12:44.367Z,56.20
2018-08-25T06:15:13.302Z,56.10
2018-08-25T06:17:41.587Z,55.20
2018-08-25T06:20:10.074Z,55.80
2018-08-25T06:22:39.051Z,54.90
2018-08-25T06:25:07.328Z,54.80
2018-08-25T06:27:35.549Z,54.90
2018-08-25T06:30:03.820Z,54.70
2018-08-25T06:32:31.976Z,55.50
2018-08-25T06:35:01.007Z,54.90
2018-08-25T06:37:29.267Z,54.90
2018-08-25T06:39:57.491Z,55.50
2018-08-25T06:42:26.082Z,55.40
2018-08-25T06:44:54.297Z,55.30
2018-08-25T06:47:23.307Z,55.80
2018-08-25T06:49:51.567Z,55.80
2018-08-25T06:52:21.860Z,55.50
2018-08-25T06:54:51.097Z,55.50
2018-08-25T06:57:20.103Z,56.40
2018-08-25T06:59:48.316Z,56.40
2018-08-25T07:02:16.545Z,56.20
2018-08-25T07:04:45.594Z,56.30
2018-08-25T07:07:13.885Z,57.30
2018-08-25T07:09:42.081Z,56.20
2018-08-25T07:12:10.353Z,55.20
2018-08-25T07:14:40.834Z,54.50
2018-08-25T07:17:09.105Z,54.50
2018-08-25T07:19:37.309Z,54.10
2018-08-25T07:22:06.466Z,53.70
2018-08-25T07:24:35.812Z,53.60
2018-08-25T07:27:04.827Z,53.90
2018-08-25T07:29:33.081Z,53.50
2018-08-25T07:32:01.328Z,52.80
2018-08-25T07:34:31.176Z,52.30
2018-08-25T07:36:59.460Z,52.30
2018-08-25T07:39:27.677Z,52.90
2018-08-25T07:41:55.930Z,53.10
2018-08-25T07:44:24.937Z,52.80
2018-08-25T07:46:53.927Z,53.10
2018-08-25T07:49:24.923Z,53.10
2018-08-25T07:51:53.112Z,51.20
2018-08-25T07:54:22.219Z,51.80
2018-08-25T07:56:50.466Z,51.50
2018-08-25T07:59:18.834Z,51.70
2018-08-25T08:01:46.990Z,49.90
2018-08-25T08:04:15.185Z,50.70
2018-08-25T08:06:43.413Z,52.20
2018-08-25T08:09:12.447Z,50.00
2018-08-25T08:11:40.773Z,50.00
2018-08-25T08:14:08.914Z,51.10
2018-08-25T08:16:37.129Z,49.80
2018-08-25T08:19:06.164Z,50.50
2018-08-25T08:21:34.957Z,50.40
2018-08-25T08:24:03.807Z,49.30
2018-08-25T08:26:32.797Z,49.30
2018-08-25T08:29:01.782Z,51.00
2018-08-25T08:31:30.020Z,50.80
2018-08-25T08:33:59.038Z,49.20
2018-08-25T08:36:27.259Z,50.40
2018-08-25T08:38:55.516Z,50.40
2018-08-25T08:41:23.779Z,49.60
2018-08-25T08:43:52.753Z,48.30
2018-08-25T08:46:21.033Z,49.50
2018-08-25T08:48:49.247Z,49.80
2018-08-25T08:51:18.243Z,48.40
2018-08-25T08:53:47.215Z,48.60
2018-08-25T08:56:15.445Z,48.70
2018-08-25T08:58:43.712Z,48.80
2018-08-25T09:01:12.742Z,49.50
2018-08-25T09:03:40.959Z,47.80
2018-08-25T09:06:09.949Z,48.90
2018-08-25T09:08:38.989Z,48.30
2018-08-25T09:11:07.257Z,48.30
2018-08-25T09:13:36.253Z,49.30
2018-08-25T09:16:04.531Z,48.30
2018-08-25T09:18:32.761Z,48.90
2018-08-25T09:21:01.806Z,49.40
2018-08-25T09:23:30.007Z,49.40
2018-08-25T09:25:58.277Z,49.50
2018-08-25T09:28:27.237Z,49.90
2018-08-25T09:30:55.465Z,49.90
2018-08-25T09:33:23.720Z,50.00
2018-08-25T09:35:52.115Z,50.30
2018-08-25T09:38:20.214Z,51.90
2018-08-25T09:40:49.246Z,53.40
2018-08-25T09:43:17.449Z,53.40
2018-08-25T09:45:45.689Z,53.50
2018-08-25T09:48:13.931Z,54.20
2018-08-25T09:50:42.197Z,53.60
2018-08-25T09:53:10.443Z,54.50
2018-08-25T09:55:38.706Z,53.80
2018-08-25T09:58:06.963Z,52.40
2018-08-25T10:00:35.181Z,52.20
2018-08-25T10:03:03.435Z,53.50
2018-08-25T10:05:31.929Z,54.00
2018-08-25T10:08:00.143Z,53.50
2018-08-25T10:10:28.389Z,53.30
2018-08-25T10:12:57.648Z,53.70
2018-08-25T10:15:26.671Z,53.50
2018-08-25T10:17:54.943Z,53.50
2018-08-25T10:20:23.200Z,55.80
2018-08-25T10:22:52.289Z,56.30
2018-08-25T10:25:20.486Z,56.40
2018-08-25T10:27:48.724Z,53.90
2018-08-25T10:30:17.738Z,54.20
2018-08-25T10:32:46.781Z,54.00
2018-08-25T10:35:14.988Z,54.00
2018-08-25T10:37:43.228Z,53.30
2018-08-25T10:40:11.431Z,53.50
2018-08-25T10:42:40.302Z,53.10
2018-08-25T10:45:08.556Z,53.70
2018-08-25T10:47:36.866Z,52.70
2018-08-25T10:50:05.096Z,52.70
2018-08-25T10:52:33.453Z,51.90
2018-08-25T10:55:02.746Z,53.10
2018-08-25T10:57:30.994Z,53.20
2018-08-25T11:00:00.077Z,52.80
2018-08-25T11:02:28.298Z,53.00
2018-08-25T11:04:57.301Z,52.60
2018-08-25T11:07:26.327Z,52.30
2018-08-25T11:09:54.530Z,52.30
2018-08-25T11:12:22.762Z,52.50
2018-08-25T11:14:51.038Z,52.10
2018-08-25T11:17:20.072Z,52.60
2018-08-25T11:19:49.051Z,52.10
2018-08-25T11:22:17.317Z,52.00
2018-08-25T11:24:45.958Z,51.80
2018-08-25T11:27:14.223Z,51.90
2018-08-25T11:29:42.438Z,52.60
2018-08-25T11:32:10.720Z,53.10
2018-08-25T11:34:39.679Z,54.10
2018-08-25T11:37:08.851Z,55.30
2018-08-25T11:39:37.012Z,54.90
2018-08-25T11:42:05.287Z,54.50
2018-08-25T11:44:33.522Z,53.60
2018-08-25T11:47:02.597Z,53.20
2018-08-25T11:49:30.848Z,53.10
2018-08-25T11:51:59.090Z,56.70
2018-08-25T11:54:27.339Z,58.80
2018-08-25T11:56:55.591Z,56.30
2018-08-25T11:59:23.799Z,57.80
2018-08-25T12:01:52.787Z,59.70
2018-08-25T12:04:21.765Z,57.60
2018-08-25T12:06:50.032Z,57.60
2018-08-25T12:09:18.256Z,56.70
2018-08-25T12:11:47.233Z,58.10
2018-08-25T12:14:16.263Z,58.20
2018-08-25T12:16:44.485Z,58.10
2018-08-25T12:19:13.501Z,58.20
2018-08-25T12:21:42.511Z,57.20
2018-08-25T12:24:10.885Z,57.20
2018-08-25T12:26:39.066Z,55.90
2018-08-25T12:29:08.063Z,55.30
2018-08-25T12:31:37.804Z,55.30
2018-08-25T12:34:06.037Z,56.50
2018-08-25T12:36:35.027Z,56.70
2018-08-25T12:39:04.015Z,56.30
2018-08-25T12:41:32.315Z,56.20
2018-08-25T12:44:00.572Z,56.60
2018-08-25T12:46:30.146Z,58.00
2018-08-25T12:48:58.524Z,57.90
2018-08-25T12:51:26.735Z,58.30
2018-08-25T12:53:55.758Z,56.50
2018-08-25T12:56:23.961Z,56.50
2018-08-25T12:58:52.224Z,55.50
2018-08-25T13:01:21.322Z,56.90
2018-08-25T13:03:49.568Z,55.70
2018-08-25T13:06:17.818Z,56.20
2018-08-25T13:08:46.716Z,55.60
2018-08-25T13:11:14.938Z,55.10
2018-08-25T13:13:43.151Z,55.80
2018-08-25T13:16:11.377Z,56.80
2018-08-25T13:18:39.721Z,55.40
2018-08-25T13:21:07.921Z,55.60
2018-08-25T13:23:36.127Z,56.30
2018-08-25T13:26:04.348Z,56.30
2018-08-25T13:28:33.338Z,56.80
2018-08-25T13:31:01.688Z,56.80
2018-08-25T13:33:29.817Z,56.80
2018-08-25T13:35:58.036Z,56.90
2018-08-25T13:38:26.256Z,57.10
2018-08-25T13:40:55.296Z,56.20
2018-08-25T13:43:23.524Z,56.20
2018-08-25T13:45:53.754Z,56.40
2018-08-25T13:48:22.725Z,57.10
2018-08-25T13:50:51.450Z,57.10
2018-08-25T13:53:19.609Z,57.00
2018-08-25T13:55:47.864Z,57.60
2018-08-25T13:58:16.104Z,57.10
2018-08-25T14:00:49.746Z,57.70
2018-08-25T14:03:17.956Z,58.20
2018-08-25T14:05:47.248Z,57.80
2018-08-25T14:08:15.562Z,57.80
2018-08-25T14:10:43.811Z,57.00
2018-08-25T14:13:12.872Z,57.30
2018-08-25T14:15:41.124Z,57.40
2018-08-25T14:18:09.387Z,58.30
2018-08-25T14:20:37.592Z,57.20
2018-08-25T14:23:05.873Z,58.00
2018-08-25T14:25:36.716Z,57.50
2018-08-25T14:28:04.964Z,57.00
2018-08-25T14:30:33.905Z,58.10
2018-08-25T14:33:02.876Z,57.80
2018-08-25T14:35:31.117Z,58.30
2018-08-25T14:37:59.386Z,57.40
2018-08-25T14:40:27.593Z,57.50
2018-08-25T14:42:55.916Z,56.80
2018-08-25T14:45:24.201Z,56.70
2018-08-25T14:47:52.527Z,56.50
2018-08-25T14:50:21.329Z,56.40
2018-08-25T14:52:50.375Z,56.20
2018-08-25T14:55:18.590Z,56.70
2018-08-25T14:57:47.114Z,56.50
2018-08-25T15:00:16.158Z,56.70
2018-08-25T15:02:45.081Z,56.90
2018-08-25T15:05:14.055Z,56.80
2018-08-25T15:07:42.277Z,56.90
2018-08-25T15:10:10.530Z,56.60
2018-08-25T15:12:38.833Z,56.50
2018-08-25T15:15:07.069Z,56.20
2018-08-25T15:17:35.287Z,56.20
2018-08-25T15:20:03.487Z,56.00
2018-08-25T15:22:31.717Z,55.50
2018-08-25T15:25:00.728Z,54.90
2018-08-25T15:27:29.711Z,54.10
2018-08-25T15:29:58.740Z,53.80
2018-08-25T15:32:27.008Z,53.80
2018-08-25T15:34:55.242Z,54.50
2018-08-25T15:37:23.470Z,54.20
2018-08-25T15:39:51.689Z,53.70
2018-08-25T15:42:20.796Z,54.00
2018-08-25T15:44:49.822Z,53.60
2018-08-25T15:47:18.084Z,53.60
2018-08-25T15:49:47.049Z,52.20
2018-08-25T15:52:15.439Z,52.20
2018-08-25T15:54:44.367Z,52.90
2018-08-25T15:57:12.584Z,52.90
2018-08-25T15:59:40.820Z,53.30
2018-08-25T16:02:09.044Z,53.10
2018-08-25T16:04:37.295Z,52.70
2018-08-25T16:07:05.505Z,52.30
2018-08-25T16:09:34.531Z,52.30
2018-08-25T16:12:02.840Z,52.20
2018-08-25T16:14:31.817Z,51.60
2018-08-25T16:17:00.072Z,51.50
2018-08-25T16:19:29.105Z,52.10
2018-08-25T16:21:58.075Z,52.20
2018-08-25T16:24:26.287Z,52.20
2018-08-25T16:26:54.593Z,50.70
2018-08-25T16:29:22.771Z,52.40
2018-08-25T16:31:51.055Z,50.80
2018-08-25T16:34:20.027Z,49.70
2018-08-25T16:36:48.231Z,49.70
2018-08-25T16:39:16.543Z,50.40
2018-08-25T16:41:44.740Z,51.70
2018-08-25T16:44:12.958Z,49.50
2018-08-25T16:46:41.165Z,49.90
2018-08-25T16:49:09.422Z,50.00
2018-08-25T16:51:37.693Z,48.60
2018-08-25T16:54:06.657Z,48.60
2018-08-25T16:56:34.894Z,48.50
2018-08-25T16:59:03.140Z,49.90
2018-08-25T17:01:32.163Z,50.90
2018-08-25T17:04:00.407Z,50.90
2018-08-25T17:06:28.618Z,50.80
2018-08-25T17:08:56.912Z,50.80
2018-08-25T17:11:25.100Z,50.70
2018-08-25T17:13:53.312Z,50.50
2018-08-25T17:16:22.346Z,50.20
2018-08-25T17:18:50.608Z,50.20
2018-08-25T17:21:18.842Z,50.50
2018-08-25T17:23:47.047Z,50.20
2018-08-25T17:26:15.316Z,49.90
2018-08-25T17:28:43.529Z,49.50
2018-08-25T17:31:11.760Z,49.90
2018-08-25T17:33:40.766Z,50.00
2018-08-25T17:36:08.977Z,50.00
2018-08-25T17:38:37.272Z,49.90
2018-08-25T17:41:05.526Z,49.70
2018-08-25T17:43:33.733Z,49.10
2018-08-25T17:46:01.952Z,50.00
2018-08-25T17:48:30.163Z,49.80
2018-08-25T17:50:58.475Z,50.00
2018-08-25T17:53:26.822Z,50.00
2018-08-25T17:55:55.118Z,50.20
2018-08-25T17:58:24.098Z,50.10
2018-08-25T18:00:52.305Z,50.00
2018-08-25T18:03:20.946Z,49.70
2018-08-25T18:05:49.167Z,49.70
2018-08-25T18:08:18.159Z,50.30
2018-08-25T18:10:46.373Z,49.80
2018-08-25T18:13:14.645Z,50.20
2018-08-25T18:15:42.882Z,50.10
2018-08-25T18:18:11.157Z,50.40
2018-08-25T18:20:39.365Z,50.80
2018-08-25T18:23:07.589Z,51.20
2018-08-25T18:25:35.847Z,51.70
2018-08-25T18:28:04.105Z,52.80
2018-08-25T18:30:32.388Z,51.90
2018-08-25T18:33:00.644Z,51.30
2018-08-25T18:35:29.625Z,53.90
2018-08-25T18:37:57.852Z,53.90
2018-08-25T18:40:26.100Z,53.10
2018-08-25T18:42:54.360Z,52.00
2018-08-25T18:45:22.570Z,52.90
2018-08-25T18:47:50.800Z,52.00
2018-08-25T18:50:19.068Z,53.80
2018-08-25T18:52:47.342Z,55.90
2018-08-25T18:55:15.633Z,53.40
2018-08-25T18:57:44.671Z,52.00
2018-08-25T19:00:12.953Z,52.00
2018-08-25T19:02:41.242Z,55.00
2018-08-25T19:05:09.486Z,52.40
2018-08-25T19:07:38.539Z,52.00
2018-08-25T19:10:06.745Z,51.90
2018-08-25T19:12:35.782Z,51.70
2018-08-25T19:15:04.040Z,51.70
2018-08-25T19:17:32.254Z,52.10
2018-08-25T19:20:00.482Z,54.20
2018-08-25T19:22:29.461Z,54.90
2018-08-25T19:24:58.508Z,53.20
2018-08-25T19:27:26.782Z,53.20
2018-08-25T19:29:55.047Z,52.40
2018-08-25T19:32:23.315Z,52.10
2018-08-25T19:34:51.586Z,54.50
2018-08-25T19:37:19.851Z,53.30
2018-08-25T19:39:48.837Z,52.10
2018-08-25T19:42:18.364Z,52.10
2018-08-25T19:44:47.363Z,51.50
2018-08-25T19:47:15.610Z,51.40
2018-08-25T19:49:44.635Z,51.10
2018-08-25T19:52:12.864Z,51.00
2018-08-25T19:54:41.078Z,51.20
2018-08-25T19:57:09.302Z,51.10
2018-08-25T19:59:37.560Z,51.10
2018-08-25T20:02:05.786Z,51.00
2018-08-25T20:04:34.812Z,51.50
2018-08-25T20:07:03.051Z,51.50
2018-08-25T20:09:31.335Z,52.20
2018-08-25T20:11:59.506Z,52.10
2018-08-25T20:14:27.704Z,51.60
2018-08-25T20:16:55.971Z,51.20
2018-08-25T20:19:24.990Z,52.30
2018-08-25T20:21:54.010Z,51.60
2018-08-25T20:24:22.250Z,51.60
2018-08-25T20:26:50.495Z,51.80
2018-08-25T20:29:18.693Z,51.60
2018-08-25T20:31:47.739Z,53.70
2018-08-25T20:34:15.987Z,52.70
2018-08-25T20:36:44.217Z,52.60
2018-08-25T20:39:13.191Z,52.10
2018-08-25T20:41:41.413Z,52.10
2018-08-25T20:44:09.624Z,51.50
2018-08-25T20:46:37.839Z,53.50
2018-08-25T20:49:06.870Z,51.90
2018-08-25T20:51:35.094Z,51.80
2018-08-25T20:54:03.328Z,52.80
2018-08-25T20:56:31.589Z,52.80
2018-08-25T20:58:59.877Z,52.60
2018-08-25T21:01:28.098Z,52.50
2018-08-25T21:03:56.351Z,53.40
2018-08-25T21:06:24.612Z,53.60
2018-08-25T21:08:52.819Z,53.10
2018-08-25T21:11:21.030Z,58.70
2018-08-25T21:13:49.275Z,55.60
2018-08-25T21:16:17.546Z,53.50
2018-08-25T21:18:45.805Z,56.10
2018-08-25T21:21:14.084Z,52.70
2018-08-25T21:23:42.340Z,55.10
2018-08-25T21:26:10.548Z,53.50
2018-08-25T21:28:38.811Z,52.60
2018-08-25T21:31:07.119Z,52.30
2018-08-25T21:33:35.344Z,52.30
2018-08-25T21:36:03.566Z,55.30
2018-08-25T21:38:31.793Z,57.60
2018-08-25T21:41:00.040Z,53.00
2018-08-25T21:43:28.243Z,53.60
2018-08-25T21:45:56.516Z,53.40
2018-08-25T21:48:25.503Z,54.70
2018-08-25T21:50:53.736Z,55.00
2018-08-25T21:53:21.970Z,52.90
2018-08-25T21:55:50.229Z,54.10
2018-08-25T21:58:18.459Z,52.70
2018-08-25T22:00:46.734Z,54.20
2018-08-25T22:03:15.010Z,53.10
2018-08-25T22:05:43.294Z,53.70
2018-08-25T22:08:11.524Z,52.40
2018-08-25T22:10:39.737Z,53.40
2018-08-25T22:13:08.014Z,54.10
2018-08-25T22:15:36.221Z,54.30
2018-08-25T22:18:04.460Z,53.80
2018-08-25T22:20:32.702Z,54.20
2018-08-25T22:23:01.720Z,54.50
2018-08-25T22:25:29.939Z,54.40
2018-08-25T22:27:58.219Z,54.60
2018-08-25T22:30:26.474Z,53.90
2018-08-25T22:32:54.694Z,53.70
2018-08-25T22:35:22.912Z,53.30
2018-08-25T22:37:51.193Z,53.60
2018-08-25T22:40:19.450Z,53.50
2018-08-25T22:42:47.685Z,53.50
2018-08-25T22:45:15.936Z,53.30
2018-08-25T22:47:44.161Z,53.00
2018-08-25T22:50:12.421Z,53.80
2018-08-25T22:52:40.697Z,55.20
2018-08-25T22:55:08.958Z,55.40
2018-08-25T22:57:37.218Z,54.80
2018-08-25T23:00:06.243Z,53.80
2018-08-25T23:02:34.451Z,53.80
2018-08-25T23:05:02.716Z,53.50
2018-08-25T23:07:31.744Z,54.70
2018-08-25T23:09:59.995Z,54.70
2018-08-25T23:12:28.992Z,55.30
2018-08-25T23:14:57.214Z,55.40
2018-08-25T23:17:25.561Z,56.00
2018-08-25T23:19:53.716Z,56.40
2018-08-25T23:22:21.946Z,54.10
2018-08-25T23:24:50.160Z,54.00
2018-08-25T23:27:19.201Z,54.80
2018-08-25T23:29:47.412Z,54.80
2018-08-25T23:32:15.741Z,53.50
2018-08-25T23:34:43.955Z,57.70
2018-08-25T23:37:12.195Z,54.60
2018-08-25T23:39:40.461Z,58.00
2018-08-25T23:42:08.677Z,57.90
2018-08-25T23:44:36.899Z,53.80
2018-08-25T23:47:05.165Z,55.40
2018-08-25T23:49:33.427Z,54.20
2018-08-25T23:52:01.639Z,55.10
2018-08-25T23:54:29.914Z,55.50
2018-08-25T23:56:58.175Z,56.70
2018-08-25T23:59:26.430Z,54.40
